createdAt,value
2018-06-21T00:00:02.833Z,91.80
2018-06-21T00:02:30.976Z,91.80
2018-06-21T00:04:59.171Z,92.10
2018-06-21T00:09:55.220Z,92.10
2018-06-21T00:12:23.378Z,92.10
2018-06-21T00:14:51.521Z,92.10
2018-06-21T00:17:19.675Z,92.10
2018-06-21T00:19:47.816Z,92.10
2018-06-21T00:22:15.961Z,92.10
2018-06-21T00:27:12.097Z,92.50
2018-06-21T00:29:40.224Z,92.30
2018-06-21T00:32:08.380Z,92.30
2018-06-21T00:34:36.524Z,92.40
2018-06-21T00:37:04.644Z,92.40
2018-06-21T00:39:32.771Z,92.40
2018-06-21T00:42:00.917Z,92.60
2018-06-21T00:44:29.040Z,92.80
2018-06-21T00:46:57.180Z,92.90
2018-06-21T00:49:25.305Z,93.30
2018-06-21T00:51:53.443Z,93.20
2018-06-21T00:54:21.582Z,93.20
2018-06-21T00:56:49.706Z,93.20
2018-06-21T00:59:17.838Z,93.30
2018-06-21T01:01:45.960Z,93.40
2018-06-21T01:04:14.084Z,93.40
2018-06-21T01:06:42.202Z,93.60
2018-06-21T01:09:10.332Z,93.60
2018-06-21T01:11:38.454Z,93.70
2018-06-21T01:14:06.576Z,93.50
2018-06-21T01:16:34.720Z,93.90
2018-06-21T01:19:02.853Z,94.00
2018-06-21T01:21:30.997Z,94.00
2018-06-21T01:23:59.126Z,94.00
2018-06-21T01:26:27.342Z,94.00
2018-06-21T01:28:55.463Z,94.20
2018-06-21T01:31:24.408Z,94.10
2018-06-21T01:33:52.535Z,94.30
2018-06-21T01:36:20.660Z,94.10
2018-06-21T01:38:48.784Z,94.30
2018-06-21T01:41:16.937Z,93.90
2018-06-21T01:43:45.075Z,93.90
2018-06-21T01:46:13.208Z,93.90
2018-06-21T01:48:41.333Z,93.80
2018-06-21T01:51:09.489Z,94.00
2018-06-21T01:53:37.635Z,94.10
2018-06-21T01:56:05.756Z,94.20
2018-06-21T01:58:33.873Z,94.50
2018-06-21T02:01:02.005Z,94.60
2018-06-21T02:03:30.128Z,94.90
2018-06-21T02:05:58.297Z,95.10
2018-06-21T02:08:26.511Z,95.20
2018-06-21T02:10:54.648Z,95.30
2018-06-21T02:13:22.775Z,95.20
2018-06-21T02:15:50.918Z,95.50
2018-06-21T02:18:19.089Z,95.90
2018-06-21T02:20:47.226Z,95.90
2018-06-21T02:23:15.481Z,96.00
2018-06-21T02:25:43.626Z,96.00
2018-06-21T02:28:11.744Z,96.10
2018-06-21T02:30:39.888Z,96.10
2018-06-21T02:33:08.022Z,96.20
2018-06-21T02:35:36.148Z,96.20
2018-06-21T02:40:32.252Z,96.40
2018-06-21T02:43:00.430Z,96.40
2018-06-21T02:45:28.573Z,96.40
2018-06-21T02:47:56.739Z,96.50
2018-06-21T02:50:24.880Z,96.60
2018-06-21T02:52:53.013Z,96.60
2018-06-21T02:55:21.149Z,96.70
2018-06-21T02:57:49.336Z,96.80
2018-06-21T03:00:17.517Z,97.30
2018-06-21T03:02:45.639Z,97.20
2018-06-21T03:05:13.744Z,97.70
2018-06-21T03:07:41.912Z,97.50
2018-06-21T03:10:10.189Z,97.60
2018-06-21T03:12:38.321Z,97.40
2018-06-21T03:15:06.465Z,97.40
2018-06-21T03:17:34.601Z,97.40
2018-06-21T03:20:02.768Z,97.40
2018-06-21T03:22:30.900Z,97.40
2018-06-21T03:24:59.028Z,97.30
2018-06-21T03:27:27.165Z,97.20
2018-06-21T03:29:55.305Z,97.20
2018-06-21T03:32:23.420Z,97.20
2018-06-21T03:37:19.476Z,97.60
2018-06-21T03:39:47.627Z,97.30
2018-06-21T03:42:15.758Z,97.40
2018-06-21T03:44:43.923Z,97.40
2018-06-21T03:47:12.040Z,97.80
2018-06-21T03:49:40.180Z,97.70
2018-06-21T03:52:08.381Z,98.00
2018-06-21T03:54:36.468Z,97.90
2018-06-21T03:57:04.604Z,97.80
2018-06-21T03:59:32.752Z,97.70
2018-06-21T04:02:00.986Z,97.60
2018-06-21T04:04:29.122Z,97.60
2018-06-21T04:06:57.363Z,97.60
2018-06-21T04:11:53.430Z,97.50
2018-06-21T04:14:21.564Z,97.40
2018-06-21T04:16:49.708Z,97.40
2018-06-21T04:19:17.853Z,97.40
2018-06-21T04:21:46.002Z,97.40
2018-06-21T04:24:14.128Z,97.40
2018-06-21T04:26:42.269Z,97.40
2018-06-21T04:29:10.384Z,97.20
2018-06-21T04:31:38.504Z,97.10
2018-06-21T04:34:06.744Z,97.00
2018-06-21T04:36:35.218Z,96.60
2018-06-21T04:39:03.648Z,96.10
2018-06-21T04:41:31.770Z,96.10
2018-06-21T04:43:59.885Z,95.80
2018-06-21T04:46:28.042Z,95.40
2018-06-21T04:48:56.191Z,94.80
2018-06-21T04:51:24.316Z,94.60
2018-06-21T04:53:52.457Z,94.50
2018-06-21T04:56:20.590Z,94.30
2018-06-21T04:58:48.719Z,93.80
2018-06-21T05:01:16.853Z,93.40
2018-06-21T05:03:45.072Z,93.00
2018-06-21T05:06:13.264Z,92.90
2018-06-21T05:08:41.407Z,92.70
2018-06-21T05:11:09.533Z,92.50
2018-06-21T05:13:37.864Z,92.50
2018-06-21T05:16:06.017Z,92.40
2018-06-21T05:18:34.153Z,92.30
2018-06-21T05:23:30.252Z,92.10
2018-06-21T05:25:58.384Z,92.10
2018-06-21T05:28:26.448Z,92.00
2018-06-21T05:30:54.505Z,91.80
2018-06-21T05:33:22.598Z,91.70
2018-06-21T05:35:50.666Z,91.50
2018-06-21T05:38:18.743Z,91.40
2018-06-21T05:40:46.914Z,91.40
2018-06-21T05:43:14.990Z,91.30
2018-06-21T05:45:43.068Z,91.30
2018-06-21T05:48:11.155Z,91.30
2018-06-21T05:50:39.279Z,90.90
2018-06-21T05:53:07.331Z,90.80
2018-06-21T05:55:35.537Z,90.70
2018-06-21T05:58:03.626Z,90.20
2018-06-21T06:00:31.707Z,90.00
2018-06-21T06:02:59.770Z,89.90
2018-06-21T06:05:27.857Z,89.70
2018-06-21T06:07:55.939Z,89.20
2018-06-21T06:10:24.023Z,88.80
2018-06-21T06:12:52.110Z,88.50
2018-06-21T06:15:20.190Z,87.10
2018-06-21T06:17:48.294Z,87.00
2018-06-21T06:20:16.457Z,87.20
2018-06-21T06:22:44.559Z,86.40
2018-06-21T06:25:12.755Z,86.00
2018-06-21T06:27:40.827Z,85.50
2018-06-21T06:30:09.102Z,85.00
2018-06-21T06:32:37.280Z,84.70
2018-06-21T06:35:05.460Z,84.70
2018-06-21T06:37:33.533Z,84.40
2018-06-21T06:40:01.609Z,84.10
2018-06-21T06:42:29.744Z,84.00
2018-06-21T06:44:57.834Z,84.00
2018-06-21T06:47:26.537Z,83.80
2018-06-21T06:49:54.630Z,83.90
2018-06-21T06:52:22.882Z,83.50
2018-06-21T06:54:50.961Z,83.40
2018-06-21T06:57:19.027Z,83.10
2018-06-21T06:59:47.214Z,82.10
2018-06-21T07:02:15.310Z,81.40
2018-06-21T07:04:43.411Z,80.80
2018-06-21T07:07:11.482Z,80.30
2018-06-21T07:09:39.646Z,78.70
2018-06-21T07:12:07.724Z,78.40
2018-06-21T07:14:35.909Z,78.20
2018-06-21T07:17:03.860Z,78.00
2018-06-21T07:19:31.965Z,77.90
2018-06-21T07:22:00.045Z,77.90
2018-06-21T07:24:28.112Z,77.90
2018-06-21T07:26:56.182Z,77.90
2018-06-21T07:29:24.255Z,78.60
2018-06-21T07:31:53.275Z,77.70
2018-06-21T07:34:21.351Z,77.00
2018-06-21T07:36:49.469Z,76.80
2018-06-21T07:39:17.515Z,76.90
2018-06-21T07:41:45.583Z,76.90
2018-06-21T07:44:13.658Z,77.60
2018-06-21T07:46:41.731Z,76.50
2018-06-21T07:49:09.859Z,76.50
2018-06-21T07:51:37.925Z,75.90
2018-06-21T07:54:05.994Z,76.00
2018-06-21T07:56:34.062Z,74.90
2018-06-21T07:59:02.155Z,73.90
2018-06-21T08:01:30.214Z,69.80
2018-06-21T08:03:58.282Z,69.60
2018-06-21T08:06:26.352Z,69.30
2018-06-21T08:08:54.421Z,68.90
2018-06-21T08:11:22.495Z,68.00
2018-06-21T08:13:50.586Z,67.40
2018-06-21T08:16:18.675Z,67.00
2018-06-21T08:18:47.017Z,66.00
2018-06-21T08:21:15.074Z,65.00
2018-06-21T08:23:43.161Z,63.60
2018-06-21T08:26:11.250Z,62.60
2018-06-21T08:28:39.334Z,62.20
2018-06-21T08:31:07.447Z,61.20
2018-06-21T08:33:35.505Z,60.90
2018-06-21T08:36:03.600Z,61.00
2018-06-21T08:38:31.695Z,60.00
2018-06-21T08:40:59.754Z,59.20
2018-06-21T08:43:27.826Z,59.10
2018-06-21T08:45:55.969Z,58.20
2018-06-21T08:48:24.015Z,58.60
2018-06-21T08:50:52.082Z,57.80
2018-06-21T08:53:20.158Z,58.40
2018-06-21T08:55:48.219Z,57.50
2018-06-21T08:58:16.308Z,57.50
2018-06-21T09:00:44.501Z,56.20
2018-06-21T09:03:12.711Z,56.00
2018-06-21T09:05:40.772Z,56.10
2018-06-21T09:08:08.969Z,55.40
2018-06-21T09:10:37.035Z,55.30
2018-06-21T09:13:05.236Z,55.50
2018-06-21T09:15:33.315Z,56.10
2018-06-21T09:18:01.399Z,55.50
2018-06-21T09:20:29.526Z,53.70
2018-06-21T09:22:57.582Z,53.40
2018-06-21T09:25:25.651Z,53.60
2018-06-21T09:27:53.867Z,53.80
2018-06-21T09:30:21.959Z,53.90
2018-06-21T09:32:50.027Z,54.10
2018-06-21T09:35:18.103Z,54.10
2018-06-21T09:37:51.714Z,54.00
2018-06-21T09:40:25.330Z,53.80
2018-06-21T09:42:58.859Z,52.30
2018-06-21T09:45:32.662Z,52.20
2018-06-21T09:48:06.291Z,51.20
2018-06-21T09:50:34.375Z,51.80
2018-06-21T09:53:02.458Z,51.30
2018-06-21T09:55:30.568Z,51.00
2018-06-21T09:57:58.655Z,50.60
2018-06-21T10:00:32.143Z,50.50
2018-06-21T10:03:00.375Z,50.90
2018-06-21T10:05:28.545Z,50.80
2018-06-21T10:07:56.610Z,51.00
2018-06-21T10:10:24.693Z,51.40
2018-06-21T10:12:52.771Z,51.00
2018-06-21T10:15:20.818Z,50.60
2018-06-21T10:17:48.884Z,49.60
2018-06-21T10:20:17.016Z,49.50
2018-06-21T10:22:45.132Z,49.00
2018-06-21T10:25:13.239Z,49.10
2018-06-21T10:27:41.308Z,49.70
2018-06-21T10:30:09.484Z,50.40
2018-06-21T10:32:37.663Z,49.80
2018-06-21T10:35:05.724Z,49.00
2018-06-21T10:37:33.820Z,48.80
2018-06-21T10:40:01.887Z,48.80
2018-06-21T10:42:29.970Z,48.50
2018-06-21T10:44:58.039Z,48.50
2018-06-21T10:47:26.124Z,47.60
2018-06-21T10:49:54.270Z,47.40
2018-06-21T10:52:22.332Z,47.60
2018-06-21T10:54:50.382Z,48.00
2018-06-21T10:57:18.448Z,47.60
2018-06-21T10:59:46.510Z,46.90
2018-06-21T11:02:14.661Z,46.30
2018-06-21T11:04:42.818Z,46.10
2018-06-21T11:07:10.906Z,46.20
2018-06-21T11:09:38.963Z,46.00
2018-06-21T11:12:07.069Z,45.30
2018-06-21T11:14:35.223Z,45.20
2018-06-21T11:17:03.716Z,45.60
2018-06-21T11:19:31.866Z,45.00
2018-06-21T11:21:59.981Z,44.60
2018-06-21T11:24:28.338Z,44.80
2018-06-21T11:26:56.402Z,45.10
2018-06-21T11:29:24.454Z,45.10
2018-06-21T11:31:52.527Z,44.80
2018-06-21T11:34:20.593Z,45.00
2018-06-21T11:36:48.662Z,45.30
2018-06-21T11:39:16.747Z,45.40
2018-06-21T11:41:44.959Z,46.30
2018-06-21T11:44:13.047Z,46.30
2018-06-21T11:46:41.138Z,47.10
2018-06-21T11:49:09.196Z,46.80
2018-06-21T11:51:37.457Z,47.40
2018-06-21T11:54:05.539Z,48.00
2018-06-21T11:56:33.602Z,47.90
2018-06-21T11:59:01.690Z,48.20
2018-06-21T12:01:29.943Z,48.80
2018-06-21T12:03:58.031Z,48.30
2018-06-21T12:06:26.103Z,47.40
2018-06-21T12:08:54.194Z,47.10
2018-06-21T12:11:22.264Z,47.50
2018-06-21T12:13:50.323Z,48.10
2018-06-21T12:16:18.409Z,48.20
2018-06-21T12:18:46.666Z,48.40
2018-06-21T12:21:14.762Z,48.10
2018-06-21T12:23:42.835Z,48.20
2018-06-21T12:26:10.951Z,48.40
2018-06-21T12:28:39.107Z,48.30
2018-06-21T12:31:07.186Z,47.80
2018-06-21T12:33:35.267Z,47.00
2018-06-21T12:36:03.336Z,47.40
2018-06-21T12:38:31.408Z,47.70
2018-06-21T12:40:59.491Z,47.40
2018-06-21T12:43:27.583Z,46.90
2018-06-21T12:45:55.655Z,47.10
2018-06-21T12:48:23.706Z,47.20
2018-06-21T12:50:52.411Z,47.70
2018-06-21T12:53:20.487Z,48.10
2018-06-21T12:55:48.559Z,48.10
2018-06-21T12:58:16.634Z,48.00
2018-06-21T13:00:44.700Z,47.80
2018-06-21T13:03:12.775Z,47.50
2018-06-21T13:08:08.687Z,48.20
2018-06-21T13:10:48.309Z,48.80
2018-06-21T13:13:20.836Z,49.60
2018-06-21T13:15:48.967Z,50.30
2018-06-21T13:18:17.058Z,50.70
2018-06-21T13:20:45.125Z,50.70
2018-06-21T13:23:13.218Z,51.40
2018-06-21T13:28:09.154Z,52.70
2018-06-21T13:30:37.223Z,53.60
2018-06-21T13:33:05.487Z,53.10
2018-06-21T13:35:33.570Z,53.10
2018-06-21T13:38:01.659Z,53.00
2018-06-21T13:40:29.767Z,52.50
2018-06-21T13:42:57.875Z,51.90
2018-06-21T13:45:25.975Z,51.70
2018-06-21T13:47:54.046Z,51.50
2018-06-21T13:50:22.115Z,51.10
2018-06-21T13:52:50.178Z,50.80
2018-06-21T13:55:18.262Z,50.60
2018-06-21T13:57:46.383Z,50.50
2018-06-21T14:00:14.461Z,50.80
2018-06-21T14:02:42.540Z,50.80
2018-06-21T14:05:10.677Z,50.10
2018-06-21T14:07:38.803Z,50.10
2018-06-21T14:10:06.838Z,50.00
2018-06-21T14:12:34.914Z,50.20
2018-06-21T14:15:02.983Z,50.50
2018-06-21T14:17:31.063Z,50.80
2018-06-21T14:19:59.122Z,51.00
2018-06-21T14:22:27.198Z,51.20
2018-06-21T14:24:55.267Z,50.60
2018-06-21T14:27:23.324Z,50.00
2018-06-21T14:29:51.378Z,48.20
2018-06-21T14:32:19.431Z,47.90
2018-06-21T14:34:47.528Z,48.00
2018-06-21T14:37:15.599Z,48.10
2018-06-21T14:39:43.689Z,48.90
2018-06-21T14:42:11.760Z,48.50
2018-06-21T14:44:39.828Z,47.90
2018-06-21T14:47:07.904Z,47.30
2018-06-21T14:49:35.958Z,48.00
2018-06-21T14:52:04.192Z,48.10
2018-06-21T14:54:32.251Z,47.10
2018-06-21T14:57:00.354Z,46.10
2018-06-21T14:59:28.452Z,46.40
2018-06-21T15:01:56.527Z,46.50
2018-06-21T15:04:24.595Z,47.90
2018-06-21T15:06:52.714Z,49.30
2018-06-21T15:09:20.831Z,48.00
2018-06-21T15:11:48.914Z,47.00
2018-06-21T15:14:16.977Z,46.20
2018-06-21T15:16:45.079Z,46.60
2018-06-21T15:19:13.144Z,48.00
2018-06-21T15:21:41.208Z,47.70
2018-06-21T15:24:09.282Z,45.60
2018-06-21T15:26:37.428Z,45.00
2018-06-21T15:29:05.539Z,43.10
2018-06-21T15:31:33.615Z,43.50
2018-06-21T15:34:01.769Z,44.40
2018-06-21T15:36:29.832Z,45.30
2018-06-21T15:38:58.494Z,45.00
2018-06-21T15:41:27.937Z,44.80
2018-06-21T15:43:56.017Z,45.70
2018-06-21T15:46:24.068Z,47.30
2018-06-21T15:48:52.131Z,49.90
2018-06-21T15:51:20.202Z,52.30
2018-06-21T15:53:48.306Z,52.10
2018-06-21T15:56:16.391Z,51.20
2018-06-21T15:58:44.536Z,52.10
2018-06-21T16:01:12.586Z,56.10
2018-06-21T16:03:40.751Z,60.30
2018-06-21T16:06:08.821Z,62.30
2018-06-21T16:08:36.934Z,63.70
2018-06-21T16:11:05.015Z,65.30
2018-06-21T16:13:33.086Z,66.80
2018-06-21T16:16:01.159Z,69.20
2018-06-21T16:18:29.255Z,68.60
2018-06-21T16:20:57.339Z,68.50
2018-06-21T16:23:25.426Z,66.40
2018-06-21T16:25:53.499Z,65.50
2018-06-21T16:30:49.442Z,64.80
2018-06-21T16:33:17.524Z,62.90
2018-06-21T16:35:45.588Z,59.70
2018-06-21T16:38:13.714Z,55.90
2018-06-21T16:40:41.817Z,54.60
2018-06-21T16:43:09.925Z,54.10
2018-06-21T16:45:38.001Z,53.60
2018-06-21T16:48:06.077Z,52.60
2018-06-21T16:50:34.150Z,49.30
2018-06-21T16:53:02.347Z,47.60
2018-06-21T16:55:30.412Z,47.90
2018-06-21T16:57:58.498Z,49.30
2018-06-21T17:00:26.562Z,50.50
2018-06-21T17:02:54.658Z,51.50
2018-06-21T17:07:50.582Z,50.70
2018-06-21T17:10:18.721Z,51.00
2018-06-21T17:12:46.735Z,51.30
2018-06-21T17:15:14.800Z,52.50
2018-06-21T17:17:42.883Z,53.40
2018-06-21T17:20:11.011Z,53.90
2018-06-21T17:22:39.095Z,54.10
2018-06-21T17:25:07.294Z,54.70
2018-06-21T17:27:35.367Z,55.00
2018-06-21T17:30:03.568Z,55.30
2018-06-21T17:32:31.929Z,55.30
2018-06-21T17:35:00.291Z,55.40
2018-06-21T17:37:28.762Z,55.10
2018-06-21T17:39:56.926Z,54.60
2018-06-21T17:42:25.058Z,54.60
2018-06-21T17:44:53.119Z,54.60
2018-06-21T17:47:21.230Z,54.90
2018-06-21T17:49:49.322Z,55.10
2018-06-21T17:52:17.379Z,55.50
2018-06-21T17:54:45.692Z,55.70
2018-06-21T17:57:13.882Z,56.00
2018-06-21T17:59:41.955Z,56.10
2018-06-21T18:02:10.054Z,55.90
2018-06-21T18:04:38.148Z,57.00
2018-06-21T18:07:06.218Z,56.60
2018-06-21T18:09:34.307Z,57.00
2018-06-21T18:12:02.386Z,57.50
2018-06-21T18:14:30.622Z,57.80
2018-06-21T18:16:58.714Z,58.40
2018-06-21T18:19:26.771Z,59.10
2018-06-21T18:21:54.838Z,59.60
2018-06-21T18:24:23.071Z,60.00
2018-06-21T18:26:51.426Z,60.40
2018-06-21T18:29:19.535Z,61.10
2018-06-21T18:31:47.595Z,61.40
2018-06-21T18:34:15.719Z,61.80
2018-06-21T18:36:43.787Z,62.20
2018-06-21T18:39:12.639Z,62.50
2018-06-21T18:41:41.203Z,63.00
2018-06-21T18:44:09.356Z,64.10
2018-06-21T18:46:37.527Z,63.30
2018-06-21T18:49:05.629Z,63.20
2018-06-21T18:51:33.693Z,61.90
2018-06-21T18:54:01.766Z,61.50
2018-06-21T18:56:29.843Z,61.20
2018-06-21T18:58:57.912Z,61.00
2018-06-21T19:01:26.018Z,61.30
2018-06-21T19:06:28.046Z,61.60
2018-06-21T19:09:01.663Z,61.70
2018-06-21T19:12:07.881Z,61.70
2018-06-21T19:19:31.776Z,62.00
2018-06-21T19:21:59.850Z,61.90
2018-06-21T19:31:58.867Z,62.50
2018-06-21T19:34:26.941Z,62.90
2018-06-21T19:44:03.971Z,63.00
2018-06-21T19:46:32.043Z,63.10
2018-06-21T19:49:00.173Z,62.80
2018-06-21T19:51:28.223Z,62.90
2018-06-21T19:57:02.834Z,62.70
2018-06-21T19:59:30.948Z,63.00
2018-06-21T20:05:12.204Z,62.80
2018-06-21T20:07:40.310Z,62.60
2018-06-21T20:10:08.366Z,62.40
2018-06-21T20:12:36.602Z,62.40
2018-06-21T20:15:04.775Z,62.40
2018-06-21T20:17:32.844Z,62.40
2018-06-21T20:20:06.473Z,62.60
2018-06-21T20:22:34.595Z,62.50
2018-06-21T20:25:02.663Z,62.90
2018-06-21T20:27:30.739Z,63.00
2018-06-21T20:29:58.802Z,63.50
2018-06-21T20:32:26.883Z,63.50
2018-06-21T20:34:54.967Z,63.80
2018-06-21T20:37:23.098Z,64.10
2018-06-21T20:39:51.171Z,64.20
2018-06-21T20:42:19.267Z,64.60
2018-06-21T20:44:47.324Z,64.90
2018-06-21T20:47:15.398Z,65.10
2018-06-21T20:49:43.471Z,65.40
2018-06-21T20:52:17.154Z,65.60
2018-06-21T20:54:45.514Z,65.90
2018-06-21T20:57:13.613Z,66.10
2018-06-21T20:59:42.194Z,66.20
2018-06-21T21:02:10.271Z,66.40
2018-06-21T21:04:49.390Z,66.70
2018-06-21T21:07:17.461Z,66.80
2018-06-21T21:09:45.523Z,67.20
2018-06-21T21:12:13.620Z,67.90
2018-06-21T21:14:41.682Z,67.70
2018-06-21T21:19:37.734Z,68.30
2018-06-21T21:22:05.846Z,68.40
2018-06-21T21:24:34.615Z,69.00
2018-06-21T21:27:02.757Z,69.10
2018-06-21T21:29:30.834Z,69.20
2018-06-21T21:34:26.931Z,69.40
2018-06-21T21:36:55.043Z,69.50
2018-06-21T21:39:23.198Z,69.60
2018-06-21T21:41:51.255Z,69.60
2018-06-21T21:44:19.354Z,69.50
2018-06-21T21:46:47.504Z,69.40
2018-06-21T21:49:15.585Z,69.40
2018-06-21T21:51:43.662Z,69.30
2018-06-21T21:54:11.751Z,69.20
2018-06-21T21:59:07.751Z,69.00
2018-06-21T22:01:35.855Z,68.80
2018-06-21T22:04:03.909Z,68.70
2018-06-21T22:06:31.978Z,68.80
2018-06-21T22:09:00.048Z,68.70
2018-06-21T22:11:28.122Z,68.90
2018-06-21T22:14:01.606Z,68.90
2018-06-21T22:16:29.758Z,68.90
2018-06-21T22:18:57.834Z,68.70
2018-06-21T22:21:25.880Z,68.90
2018-06-21T22:23:53.942Z,68.70
2018-06-21T22:26:22.025Z,68.50
2018-06-21T22:28:50.252Z,68.30
2018-06-21T22:31:18.431Z,68.20
2018-06-21T22:33:46.807Z,68.70
2018-06-21T22:36:14.909Z,67.90
2018-06-21T22:38:42.934Z,67.70
2018-06-21T22:41:11.007Z,67.70
2018-06-21T22:43:39.286Z,67.60
2018-06-21T22:46:07.886Z,67.40
2018-06-21T22:48:36.454Z,67.10
2018-06-21T22:51:04.503Z,66.90
2018-06-21T22:53:32.586Z,66.70
2018-06-21T22:56:00.661Z,66.60
2018-06-21T22:58:28.720Z,66.60
2018-06-21T23:00:56.847Z,66.40
2018-06-21T23:03:25.085Z,67.10
2018-06-21T23:05:53.223Z,66.50
2018-06-21T23:08:21.323Z,65.90
2018-06-21T23:10:49.379Z,66.60
2018-06-21T23:13:17.444Z,65.70
2018-06-21T23:15:45.513Z,65.70
2018-06-21T23:18:23.938Z,65.90
2018-06-21T23:20:52.000Z,65.80
2018-06-21T23:23:20.040Z,65.60
2018-06-21T23:25:48.082Z,66.20
2018-06-21T23:28:16.147Z,65.40
2018-06-21T23:30:44.295Z,65.20
2018-06-21T23:33:12.355Z,65.70
2018-06-21T23:35:40.412Z,64.90
2018-06-21T23:38:08.473Z,64.80
2018-06-21T23:40:36.533Z,64.90
2018-06-21T23:43:04.616Z,64.90
2018-06-21T23:45:32.676Z,64.90
2018-06-21T23:48:00.746Z,65.00
2018-06-21T23:50:28.818Z,64.90
2018-06-21T23:55:24.882Z,65.50
2018-06-21T23:57:52.941Z,65.20
